sensor_id;sensor_type;location;lat;lon;timestamp;pressure;altitude;pressure_sealevel;temperature;humidity
63088;BME280;49173;43.164;27.786;2024-02-14T00:00:46;100060.78;;;8.63;83.16
63088;BME280;49173;43.164;27.786;2024-02-14T00:03:11;100060.72;;;8.64;83.49
63088;BME280;49173;43.164;27.786;2024-02-14T00:05:37;100065.97;;;8.66;83.32
63088;BME280;49173;43.164;27.786;2024-02-14T00:08:02;100057.94;;;8.66;83.53
63088;BME280;49173;43.164;27.786;2024-02-14T00:10:28;100068.66;;;8.66;83.56
63088;BME280;49173;43.164;27.786;2024-02-14T00:12:54;100064.16;;;8.66;83.49
63088;BME280;49173;43.164;27.786;2024-02-14T00:15:20;100057.94;;;8.66;83.39
63088;BME280;49173;43.164;27.786;2024-02-14T00:17:45;100064.25;;;8.65;83.57
63088;BME280;49173;43.164;27.786;2024-02-14T00:20:11;100070.53;;;8.64;83.79
63088;BME280;49173;43.164;27.786;2024-02-14T00:22:38;100062.28;;;8.68;83.80
63088;BME280;49173;43.164;27.786;2024-02-14T00:25:03;100069.44;;;8.68;84.05
63088;BME280;49173;43.164;27.786;2024-02-14T00:27:29;100068.50;;;8.69;84.01
63088;BME280;49173;43.164;27.786;2024-02-14T00:29:55;100068.50;;;8.69;84.18
63088;BME280;49173;43.164;27.786;2024-02-14T00:32:21;100076.53;;;8.69;84.41
63088;BME280;49173;43.164;27.786;2024-02-14T00:34:47;100070.47;;;8.65;84.70
63088;BME280;49173;43.164;27.786;2024-02-14T00:37:12;100071.41;;;8.64;84.65
63088;BME280;49173;43.164;27.786;2024-02-14T00:39:38;100065.19;;;8.64;84.77
63088;BME280;49173;43.164;27.786;2024-02-14T00:42:04;100075.13;;;8.62;85.00
63088;BME280;49173;43.164;27.786;2024-02-14T00:44:31;100066.28;;;8.60;84.92
63088;BME280;49173;43.164;27.786;2024-02-14T00:46:57;100070.72;;;8.61;85.22
63088;BME280;49173;43.164;27.786;2024-02-14T00:49:25;100065.50;;;8.58;85.33
63088;BME280;49173;43.164;27.786;2024-02-14T00:51:50;100068.28;;;8.56;85.46
63088;BME280;49173;43.164;27.786;2024-02-14T00:54:16;100078.88;;;8.58;85.47
63088;BME280;49173;43.164;27.786;2024-02-14T00:56:42;100077.94;;;8.59;85.49
63088;BME280;49173;43.164;27.786;2024-02-14T00:59:07;100077.16;;;8.57;85.86
63088;BME280;49173;43.164;27.786;2024-02-14T01:01:33;100082.41;;;8.58;85.71
63088;BME280;49173;43.164;27.786;2024-02-14T01:03:58;100081.72;;;8.55;85.93
63088;BME280;49173;43.164;27.786;2024-02-14T01:06:24;100088.81;;;8.56;85.98
63088;BME280;49173;43.164;27.786;2024-02-14T01:08:50;100091.25;;;8.60;86.10
63088;BME280;49173;43.164;27.786;2024-02-14T01:11:15;100079.53;;;8.63;86.02
63088;BME280;49173;43.164;27.786;2024-02-14T01:13:41;100082.88;;;8.66;85.95
63088;BME280;49173;43.164;27.786;2024-02-14T01:16:06;100080.16;;;8.68;86.05
63088;BME280;49173;43.164;27.786;2024-02-14T01:18:33;100088.31;;;8.65;86.39
63088;BME280;49173;43.164;27.786;2024-02-14T01:20:58;100078.75;;;8.61;86.65
63088;BME280;49173;43.164;27.786;2024-02-14T01:23:25;100088.81;;;8.56;87.08
63088;BME280;49173;43.164;27.786;2024-02-14T01:25:51;100089.84;;;8.53;87.01
63088;BME280;49173;43.164;27.786;2024-02-14T01:28:17;100098.78;;;8.52;87.37
63088;BME280;49173;43.164;27.786;2024-02-14T01:30:42;100095.25;;;8.51;87.65
63088;BME280;49173;43.164;27.786;2024-02-14T01:33:08;100100.66;;;8.50;87.87
63088;BME280;49173;43.164;27.786;2024-02-14T01:35:34;100088.34;;;8.47;88.22
63088;BME280;49173;43.164;27.786;2024-02-14T01:37:59;100090.19;;;8.45;88.31
63088;BME280;49173;43.164;27.786;2024-02-14T01:40:26;100088.41;;;8.46;88.30
63088;BME280;49173;43.164;27.786;2024-02-14T01:42:51;100096.50;;;8.44;88.72
63088;BME280;49173;43.164;27.786;2024-02-14T01:45:17;100100.97;;;8.44;88.76
63088;BME280;49173;43.164;27.786;2024-02-14T01:47:43;100101.69;;;8.47;88.67
63088;BME280;49173;43.164;27.786;2024-02-14T01:50:09;100104.59;;;8.43;88.80
63088;BME280;49173;43.164;27.786;2024-02-14T01:52:39;100103.56;;;8.45;89.04
63088;BME280;49173;43.164;27.786;2024-02-14T01:55:06;100107.13;;;8.46;88.91
63088;BME280;49173;43.164;27.786;2024-02-14T01:57:33;100103.72;;;8.42;89.24
63088;BME280;49173;43.164;27.786;2024-02-14T01:59:59;100104.69;;;8.41;89.22
63088;BME280;49173;43.164;27.786;2024-02-14T02:02:26;100104.91;;;8.37;89.55
63088;BME280;49173;43.164;27.786;2024-02-14T02:04:52;100111.38;;;8.31;89.65
63088;BME280;49173;43.164;27.786;2024-02-14T02:07:18;100108.00;;;8.27;89.97
63088;BME280;49173;43.164;27.786;2024-02-14T02:09:45;100107.16;;;8.27;90.06
63088;BME280;49173;43.164;27.786;2024-02-14T02:12:11;100100.84;;;8.28;90.21
63088;BME280;49173;43.164;27.786;2024-02-14T02:14:36;100101.03;;;8.25;90.05
63088;BME280;49173;43.164;27.786;2024-02-14T02:17:02;100100.84;;;8.28;89.91
63088;BME280;49173;43.164;27.786;2024-02-14T02:19:32;100092.75;;;8.30;89.84
63088;BME280;49173;43.164;27.786;2024-02-14T02:21:58;100100.00;;;8.27;89.83
63088;BME280;49173;43.164;27.786;2024-02-14T02:24:24;100112.56;;;8.25;89.61
63088;BME280;49173;43.164;27.786;2024-02-14T02:26:49;100114.44;;;8.23;89.70
63088;BME280;49173;43.164;27.786;2024-02-14T02:29:15;100109.09;;;8.23;89.50
63088;BME280;49173;43.164;27.786;2024-02-14T02:31:41;100112.28;;;8.32;88.80
63088;BME280;49173;43.164;27.786;2024-02-14T02:34:07;100118.50;;;8.32;88.68
63088;BME280;49173;43.164;27.786;2024-02-14T02:36:36;100118.50;;;8.32;88.55
63088;BME280;49173;43.164;27.786;2024-02-14T02:39:03;100124.84;;;8.30;88.35
63088;BME280;49173;43.164;27.786;2024-02-14T02:41:30;100123.84;;;8.32;88.12
63088;BME280;49173;43.164;27.786;2024-02-14T02:43:57;100128.38;;;8.30;87.73
63088;BME280;49173;43.164;27.786;2024-02-14T02:46:22;100131.03;;;8.30;87.44
63088;BME280;49173;43.164;27.786;2024-02-14T02:48:48;100141.16;;;8.23;87.21
63088;BME280;49173;43.164;27.786;2024-02-14T02:51:15;100130.06;;;8.14;87.06
63088;BME280;49173;43.164;27.786;2024-02-14T02:53:41;100138.19;;;8.12;87.16
63088;BME280;49173;43.164;27.786;2024-02-14T02:56:07;100137.91;;;7.99;87.65
63088;BME280;49173;43.164;27.786;2024-02-14T02:58:32;100140.56;;;7.99;87.73
63088;BME280;49173;43.164;27.786;2024-02-14T03:00:59;100142.28;;;8.01;87.92
63088;BME280;49173;43.164;27.786;2024-02-14T03:03:24;100146.63;;;8.03;87.88
63088;BME280;49173;43.164;27.786;2024-02-14T03:05:52;100145.84;;;8.01;88.02
63088;BME280;49173;43.164;27.786;2024-02-14T03:08:19;100146.69;;;8.02;87.28
63088;BME280;49173;43.164;27.786;2024-02-14T03:10:44;100153.94;;;7.99;87.46
63088;BME280;49173;43.164;27.786;2024-02-14T03:13:11;100150.59;;;7.94;87.05
63088;BME280;49173;43.164;27.786;2024-02-14T03:15:39;100153.94;;;7.99;86.64
63088;BME280;49173;43.164;27.786;2024-02-14T03:18:05;100160.22;;;7.98;86.54
63088;BME280;49173;43.164;27.786;2024-02-14T03:20:35;100157.75;;;7.94;86.17
63088;BME280;49173;43.164;27.786;2024-02-14T03:23:00;100157.84;;;7.92;86.28
63088;BME280;49173;43.164;27.786;2024-02-14T03:25:26;100163.09;;;7.94;86.14
63088;BME280;49173;43.164;27.786;2024-02-14T03:27:52;100166.72;;;7.93;86.12
63088;BME280;49173;43.164;27.786;2024-02-14T03:30:19;100171.34;;;7.89;86.17
63088;BME280;49173;43.164;27.786;2024-02-14T03:32:45;100169.19;;;7.97;86.00
63088;BME280;49173;43.164;27.786;2024-02-14T03:35:14;100170.91;;;7.98;85.41
63088;BME280;49173;43.164;27.786;2024-02-14T03:37:40;100168.34;;;7.95;85.33
63088;BME280;49173;43.164;27.786;2024-02-14T03:40:07;100166.63;;;7.94;85.09
63088;BME280;49173;43.164;27.786;2024-02-14T03:42:34;100160.34;;;7.95;84.77
63088;BME280;49173;43.164;27.786;2024-02-14T03:44:59;100166.44;;;7.99;84.49
63088;BME280;49173;43.164;27.786;2024-02-14T03:47:31;100171.84;;;7.97;84.32
63088;BME280;49173;43.164;27.786;2024-02-14T03:49:58;100172.13;;;7.91;84.27
63088;BME280;49173;43.164;27.786;2024-02-14T03:52:23;100179.28;;;7.91;84.34
63088;BME280;49173;43.164;27.786;2024-02-14T03:54:49;100174.88;;;7.90;84.23
63088;BME280;49173;43.164;27.786;2024-02-14T03:57:16;100181.13;;;7.89;84.54
63088;BME280;49173;43.164;27.786;2024-02-14T03:59:46;100187.59;;;7.85;84.49
63088;BME280;49173;43.164;27.786;2024-02-14T04:02:11;100181.66;;;7.78;84.65
63088;BME280;49173;43.164;27.786;2024-02-14T04:04:40;100183.66;;;7.73;84.78
63088;BME280;49173;43.164;27.786;2024-02-14T04:07:06;100194.78;;;7.64;85.03
63088;BME280;49173;43.164;27.786;2024-02-14T04:09:34;100194.91;;;7.61;85.19
63088;BME280;49173;43.164;27.786;2024-02-14T04:11:59;100207.75;;;7.53;85.23
63088;BME280;49173;43.164;27.786;2024-02-14T04:14:25;100209.47;;;7.54;85.86
63088;BME280;49173;43.164;27.786;2024-02-14T04:16:50;100213.22;;;7.50;85.97
63088;BME280;49173;43.164;27.786;2024-02-14T04:19:16;100226.44;;;7.53;85.84
63088;BME280;49173;43.164;27.786;2024-02-14T04:21:42;100226.66;;;7.48;85.48
63088;BME280;49173;43.164;27.786;2024-02-14T04:24:08;100226.78;;;7.45;85.22
63088;BME280;49173;43.164;27.786;2024-02-14T04:26:34;100226.78;;;7.45;85.32
63088;BME280;49173;43.164;27.786;2024-02-14T04:29:00;100232.03;;;7.47;85.33
63088;BME280;49173;43.164;27.786;2024-02-14T04:31:25;100227.66;;;7.46;85.53
63088;BME280;49173;43.164;27.786;2024-02-14T04:33:52;100227.66;;;7.46;85.54
63088;BME280;49173;43.164;27.786;2024-02-14T04:36:19;100229.25;;;7.50;85.46
63088;BME280;49173;43.164;27.786;2024-02-14T04:38:46;100238.81;;;7.55;85.33
63088;BME280;49173;43.164;27.786;2024-02-14T04:41:11;100242.25;;;7.57;85.04
63088;BME280;49173;43.164;27.786;2024-02-14T04:43:37;100243.91;;;7.60;84.82
63088;BME280;49173;43.164;27.786;2024-02-14T04:46:03;100241.31;;;7.58;84.80
63088;BME280;49173;43.164;27.786;2024-02-14T04:48:35;100248.31;;;7.61;84.70
63088;BME280;49173;43.164;27.786;2024-02-14T04:51:02;100242.84;;;7.64;84.57
63088;BME280;49173;43.164;27.786;2024-02-14T04:53:28;100254.41;;;7.64;84.38
63088;BME280;49173;43.164;27.786;2024-02-14T04:55:54;100252.59;;;7.65;84.19
63088;BME280;49173;43.164;27.786;2024-02-14T04:58:20;100254.50;;;7.63;84.26
63088;BME280;49173;43.164;27.786;2024-02-14T05:00:45;100265.09;;;7.64;84.05
63088;BME280;49173;43.164;27.786;2024-02-14T05:03:11;100265.97;;;7.65;84.13
63088;BME280;49173;43.164;27.786;2024-02-14T05:05:36;100276.66;;;7.65;84.05
63088;BME280;49173;43.164;27.786;2024-02-14T05:08:03;100279.31;;;7.65;84.18
63088;BME280;49173;43.164;27.786;2024-02-14T05:10:29;100282.06;;;7.63;84.31
63088;BME280;49173;43.164;27.786;2024-02-14T05:12:54;100274.91;;;7.64;84.07
63088;BME280;49173;43.164;27.786;2024-02-14T05:15:20;100283.19;;;7.58;83.67
63088;BME280;49173;43.164;27.786;2024-02-14T05:17:45;100288.94;;;7.49;83.94
63088;BME280;49173;43.164;27.786;2024-02-14T05:20:12;100293.47;;;7.47;84.28
63088;BME280;49173;43.164;27.786;2024-02-14T05:22:37;100297.94;;;7.46;84.27
63088;BME280;49173;43.164;27.786;2024-02-14T05:25:06;100318.69;;;7.39;84.00
63088;BME280;49173;43.164;27.786;2024-02-14T05:27:35;100313.34;;;7.39;84.24
63088;BME280;49173;43.164;27.786;2024-02-14T05:30:01;100307.03;;;7.42;84.39
63088;BME280;49173;43.164;27.786;2024-02-14T05:32:31;100312.44;;;7.40;84.59
63088;BME280;49173;43.164;27.786;2024-02-14T05:34:57;100315.91;;;7.42;84.89
63088;BME280;49173;43.164;27.786;2024-02-14T05:37:22;100321.97;;;7.46;84.46
63088;BME280;49173;43.164;27.786;2024-02-14T05:39:48;100321.09;;;7.46;84.33
63088;BME280;49173;43.164;27.786;2024-02-14T05:42:13;100329.25;;;7.42;84.61
63088;BME280;49173;43.164;27.786;2024-02-14T05:44:41;100338.22;;;7.41;84.76
63088;BME280;49173;43.164;27.786;2024-02-14T05:47:08;100334.84;;;7.36;84.73
63088;BME280;49173;43.164;27.786;2024-02-14T05:49:34;100337.34;;;7.41;85.13
63088;BME280;49173;43.164;27.786;2024-02-14T05:52:09;100348.34;;;7.33;84.68
63088;BME280;49173;43.164;27.786;2024-02-14T05:54:35;100351.91;;;7.32;85.01
63088;BME280;49173;43.164;27.786;2024-02-14T05:57:00;100344.91;;;7.30;85.25
63088;BME280;49173;43.164;27.786;2024-02-14T05:59:27;100356.34;;;7.33;84.88
63088;BME280;49173;43.164;27.786;2024-02-14T06:01:53;100348.53;;;7.29;85.21
63088;BME280;49173;43.164;27.786;2024-02-14T06:04:19;100359.81;;;7.35;85.52
63088;BME280;49173;43.164;27.786;2024-02-14T06:06:44;100359.81;;;7.35;85.29
63088;BME280;49173;43.164;27.786;2024-02-14T06:09:10;100358.09;;;7.34;85.04
63088;BME280;49173;43.164;27.786;2024-02-14T06:11:37;100367.66;;;7.40;85.10
63088;BME280;49173;43.164;27.786;2024-02-14T06:14:07;100359.56;;;7.41;85.29
63088;BME280;49173;43.164;27.786;2024-02-14T06:16:33;100363.97;;;7.42;85.37
63088;BME280;49173;43.164;27.786;2024-02-14T06:18:59;100369.16;;;7.46;85.42
63088;BME280;49173;43.164;27.786;2024-02-14T06:21:25;100374.41;;;7.49;85.47
63088;BME280;49173;43.164;27.786;2024-02-14T06:23:51;100375.34;;;7.48;85.07
63088;BME280;49173;43.164;27.786;2024-02-14T06:26:17;100375.34;;;7.48;85.02
63088;BME280;49173;43.164;27.786;2024-02-14T06:28:43;100374.19;;;7.53;84.93
63088;BME280;49173;43.164;27.786;2024-02-14T06:31:09;100384.75;;;7.56;84.75
63088;BME280;49173;43.164;27.786;2024-02-14T06:33:35;100378.53;;;7.56;84.36
63088;BME280;49173;43.164;27.786;2024-02-14T06:36:01;100386.63;;;7.54;84.65
63088;BME280;49173;43.164;27.786;2024-02-14T06:38:26;100391.06;;;7.54;84.89
63088;BME280;49173;43.164;27.786;2024-02-14T06:40:52;100396.13;;;7.61;84.88
63088;BME280;49173;43.164;27.786;2024-02-14T06:43:18;100399.50;;;7.65;84.70
63088;BME280;49173;43.164;27.786;2024-02-14T06:45:43;100402.25;;;7.63;84.35
63088;BME280;49173;43.164;27.786;2024-02-14T06:48:09;100405.00;;;7.62;84.13
63088;BME280;49173;43.164;27.786;2024-02-14T06:50:34;100404.94;;;7.63;84.04
63088;BME280;49173;43.164;27.786;2024-02-14T06:53:00;100411.06;;;7.65;84.17
63088;BME280;49173;43.164;27.786;2024-02-14T06:55:26;100415.53;;;7.65;84.33
63088;BME280;49173;43.164;27.786;2024-02-14T06:57:52;100410.19;;;7.65;83.75
63088;BME280;49173;43.164;27.786;2024-02-14T07:00:17;100407.66;;;7.62;83.80
63088;BME280;49173;43.164;27.786;2024-02-14T07:02:43;100407.28;;;7.71;84.10
63088;BME280;49173;43.164;27.786;2024-02-14T07:05:12;100419.75;;;7.70;83.99
63088;BME280;49173;43.164;27.786;2024-02-14T07:07:40;100417.16;;;7.69;83.98
63088;BME280;49173;43.164;27.786;2024-02-14T07:10:06;100415.41;;;7.68;84.43
63088;BME280;49173;43.164;27.786;2024-02-14T07:12:32;100415.69;;;7.62;84.11
63088;BME280;49173;43.164;27.786;2024-02-14T07:14:57;100427.56;;;7.55;84.62
63088;BME280;49173;43.164;27.786;2024-02-14T07:17:23;100424.75;;;7.58;84.75
63088;BME280;49173;43.164;27.786;2024-02-14T07:19:49;100434.09;;;7.68;85.12
63088;BME280;49173;43.164;27.786;2024-02-14T07:22:15;100425.78;;;7.76;84.92
63088;BME280;49173;43.164;27.786;2024-02-14T07:24:41;100426.44;;;7.81;83.89
63088;BME280;49173;43.164;27.786;2024-02-14T07:27:08;100432.13;;;7.93;84.04
63088;BME280;49173;43.164;27.786;2024-02-14T07:29:34;100436.00;;;8.07;83.64
63088;BME280;49173;43.164;27.786;2024-02-14T07:32:01;100443.03;;;8.09;83.04
63088;BME280;49173;43.164;27.786;2024-02-14T07:34:27;100438.28;;;8.16;83.11
63088;BME280;49173;43.164;27.786;2024-02-14T07:36:53;100449.44;;;8.05;82.53
63088;BME280;49173;43.164;27.786;2024-02-14T07:39:19;100450.50;;;8.01;82.03
63088;BME280;49173;43.164;27.786;2024-02-14T07:41:44;100442.31;;;8.06;82.14
63088;BME280;49173;43.164;27.786;2024-02-14T07:44:10;100453.25;;;7.99;82.25
63088;BME280;49173;43.164;27.786;2024-02-14T07:46:35;100455.75;;;8.04;82.55
63088;BME280;49173;43.164;27.786;2024-02-14T07:49:01;100448.84;;;7.98;82.51
63088;BME280;49173;43.164;27.786;2024-02-14T07:51:27;100462.75;;;8.07;82.67
63088;BME280;49173;43.164;27.786;2024-02-14T07:53:54;100465.22;;;8.11;82.85
63088;BME280;49173;43.164;27.786;2024-02-14T07:56:20;100465.34;;;8.08;82.57
63088;BME280;49173;43.164;27.786;2024-02-14T07:58:46;100467.91;;;8.11;82.41
63088;BME280;49173;43.164;27.786;2024-02-14T08:01:13;100469.63;;;8.12;82.17
63088;BME280;49173;43.164;27.786;2024-02-14T08:03:39;100469.81;;;8.08;81.67
63088;BME280;49173;43.164;27.786;2024-02-14T08:06:05;100471.28;;;7.94;81.66
63088;BME280;49173;43.164;27.786;2024-02-14T08:08:31;100472.81;;;8.00;82.47
63088;BME280;49173;43.164;27.786;2024-02-14T08:10:56;100472.56;;;8.06;82.53
63088;BME280;49173;43.164;27.786;2024-02-14T08:13:22;100462.75;;;8.07;82.00
63088;BME280;49173;43.164;27.786;2024-02-14T08:15:47;100472.22;;;8.14;82.47
63088;BME280;49173;43.164;27.786;2024-02-14T08:18:13;100472.63;;;8.05;81.72
63088;BME280;49173;43.164;27.786;2024-02-14T08:20:39;100474.38;;;8.06;82.42
63088;BME280;49173;43.164;27.786;2024-02-14T08:23:06;100469.81;;;8.08;81.91
63088;BME280;49173;43.164;27.786;2024-02-14T08:25:31;100480.66;;;8.05;81.24
63088;BME280;49173;43.164;27.786;2024-02-14T08:27:57;100481.59;;;8.04;80.94
63088;BME280;49173;43.164;27.786;2024-02-14T08:30:22;100481.72;;;8.01;81.31
63088;BME280;49173;43.164;27.786;2024-02-14T08:32:48;100479.97;;;7.99;81.66
63088;BME280;49173;43.164;27.786;2024-02-14T08:35:14;100482.47;;;8.04;82.08
63088;BME280;49173;43.164;27.786;2024-02-14T08:37:39;100488.13;;;7.96;80.86
63088;BME280;49173;43.164;27.786;2024-02-14T08:40:06;100489.63;;;8.04;81.24
63088;BME280;49173;43.164;27.786;2024-02-14T08:42:33;100492.00;;;8.10;80.32
63088;BME280;49173;43.164;27.786;2024-02-14T08:44:59;100486.66;;;8.10;79.19
63088;BME280;49173;43.164;27.786;2024-02-14T08:47:24;100496.44;;;8.11;80.51
63088;BME280;49173;43.164;27.786;2024-02-14T08:49:51;100492.75;;;8.13;80.92
63088;BME280;49173;43.164;27.786;2024-02-14T08:52:16;100490.53;;;8.23;80.49
63088;BME280;49173;43.164;27.786;2024-02-14T08:54:42;100495.56;;;8.31;80.20
63088;BME280;49173;43.164;27.786;2024-02-14T08:57:07;100500.75;;;8.35;80.06
63088;BME280;49173;43.164;27.786;2024-02-14T08:59:33;100502.22;;;8.42;79.29
63088;BME280;49173;43.164;27.786;2024-02-14T09:01:59;100497.81;;;8.41;78.21
63088;BME280;49173;43.164;27.786;2024-02-14T09:04:24;100511.47;;;8.34;78.95
63088;BME280;49173;43.164;27.786;2024-02-14T09:06:50;100491.06;;;8.31;79.08
63088;BME280;49173;43.164;27.786;2024-02-14T09:09:15;100494.84;;;8.27;78.82
63088;BME280;49173;43.164;27.786;2024-02-14T09:11:41;100487.88;;;8.23;79.37
63088;BME280;49173;43.164;27.786;2024-02-14T09:14:07;100485.19;;;8.23;79.85
63088;BME280;49173;43.164;27.786;2024-02-14T09:16:33;100483.13;;;8.30;80.85
63088;BME280;49173;43.164;27.786;2024-02-14T09:18:59;100475.75;;;8.36;79.98
63088;BME280;49173;43.164;27.786;2024-02-14T09:21:26;100481.19;;;8.33;79.19
63088;BME280;49173;43.164;27.786;2024-02-14T09:23:53;100478.63;;;8.30;79.40
63088;BME280;49173;43.164;27.786;2024-02-14T09:26:18;100490.91;;;8.36;79.33
63088;BME280;49173;43.164;27.786;2024-02-14T09:28:44;100477.69;;;8.31;78.50
63088;BME280;49173;43.164;27.786;2024-02-14T09:31:09;100473.19;;;8.33;78.73
63088;BME280;49173;43.164;27.786;2024-02-14T09:33:36;100476.59;;;8.37;79.35
63088;BME280;49173;43.164;27.786;2024-02-14T09:36:05;100463.03;;;8.41;78.56
63088;BME280;49173;43.164;27.786;2024-02-14T09:38:31;100467.72;;;8.36;79.46
63088;BME280;49173;43.164;27.786;2024-02-14T09:40:58;100474.03;;;8.34;78.70
63088;BME280;49173;43.164;27.786;2024-02-14T09:43:32;100451.66;;;8.36;79.60
63088;BME280;49173;43.164;27.786;2024-02-14T09:46:01;100468.91;;;8.49;78.62
63088;BME280;49173;43.164;27.786;2024-02-14T09:48:29;100442.94;;;8.51;78.23
63088;BME280;49173;43.164;27.786;2024-02-14T09:50:55;100460.53;;;8.57;78.07
63088;BME280;49173;43.164;27.786;2024-02-14T09:53:21;100463.00;;;8.62;78.78
63088;BME280;49173;43.164;27.786;2024-02-14T09:55:50;100473.03;;;8.57;76.81
63088;BME280;49173;43.164;27.786;2024-02-14T09:58:16;100458.06;;;8.52;77.74
63088;BME280;49173;43.164;27.786;2024-02-14T10:00:42;100461.94;;;8.45;77.15
63088;BME280;49173;43.164;27.786;2024-02-14T10:03:08;100458.63;;;8.40;78.45
63088;BME280;49173;43.164;27.786;2024-02-14T10:05:34;100461.22;;;8.42;78.63
63088;BME280;49173;43.164;27.786;2024-02-14T10:08:00;100478.28;;;8.39;78.57
63088;BME280;49173;43.164;27.786;2024-02-14T10:10:27;100463.03;;;8.41;79.59
63088;BME280;49173;43.164;27.786;2024-02-14T10:12:56;100476.53;;;8.38;78.82
63088;BME280;49173;43.164;27.786;2024-02-14T10:15:22;100480.03;;;8.40;79.58
63088;BME280;49173;43.164;27.786;2024-02-14T10:17:48;100487.22;;;8.38;79.93
63088;BME280;49173;43.164;27.786;2024-02-14T10:20:16;100485.88;;;8.28;78.94
63088;BME280;49173;43.164;27.786;2024-02-14T10:22:42;100478.53;;;8.13;79.98
63088;BME280;49173;43.164;27.786;2024-02-14T10:25:09;100484.91;;;8.09;79.97
63088;BME280;49173;43.164;27.786;2024-02-14T10:27:37;100485.94;;;8.06;80.41
63088;BME280;49173;43.164;27.786;2024-02-14T10:30:06;100476.44;;;7.99;80.08
63088;BME280;49173;43.164;27.786;2024-02-14T10:32:35;100481.72;;;8.01;80.51
63088;BME280;49173;43.164;27.786;2024-02-14T10:35:05;100487.81;;;8.04;80.02
63088;BME280;49173;43.164;27.786;2024-02-14T10:37:36;100481.63;;;8.02;81.34
63088;BME280;49173;43.164;27.786;2024-02-14T10:40:01;100490.16;;;8.12;81.30
63088;BME280;49173;43.164;27.786;2024-02-14T10:42:28;100495.28;;;8.16;80.89
63088;BME280;49173;43.164;27.786;2024-02-14T10:44:54;100498.81;;;8.17;80.24
63088;BME280;49173;43.164;27.786;2024-02-14T10:47:20;100501.22;;;8.23;80.46
63088;BME280;49173;43.164;27.786;2024-02-14T10:49:50;100512.75;;;8.25;80.40
63088;BME280;49173;43.164;27.786;2024-02-14T10:52:17;100516.75;;;8.15;79.98
63088;BME280;49173;43.164;27.786;2024-02-14T10:54:43;100510.94;;;8.05;79.18
63088;BME280;49173;43.164;27.786;2024-02-14T10:57:13;100510.41;;;7.95;79.92
63088;BME280;49173;43.164;27.786;2024-02-14T10:59:43;100508.69;;;7.94;81.03
63088;BME280;49173;43.164;27.786;2024-02-14T11:02:10;100513.25;;;7.92;80.25
63088;BME280;49173;43.164;27.786;2024-02-14T11:04:36;100524.94;;;7.90;78.86
63088;BME280;49173;43.164;27.786;2024-02-14T11:07:02;100517.09;;;7.85;79.58
63088;BME280;49173;43.164;27.786;2024-02-14T11:09:32;100527.53;;;7.91;80.21
63088;BME280;49173;43.164;27.786;2024-02-14T11:12:02;100524.88;;;7.91;79.68
63088;BME280;49173;43.164;27.786;2024-02-14T11:14:34;100523.75;;;7.97;79.02
63088;BME280;49173;43.164;27.786;2024-02-14T11:17:01;100532.50;;;8.01;79.46
63088;BME280;49173;43.164;27.786;2024-02-14T11:19:30;100523.84;;;7.94;79.69
63088;BME280;49173;43.164;27.786;2024-02-14T11:22:09;100525.41;;;7.99;79.41
63088;BME280;49173;43.164;27.786;2024-02-14T11:24:36;100523.78;;;7.95;79.31
63088;BME280;49173;43.164;27.786;2024-02-14T11:27:01;100537.97;;;7.97;79.54
63088;BME280;49173;43.164;27.786;2024-02-14T11:29:31;100526.84;;;7.86;78.80
63088;BME280;49173;43.164;27.786;2024-02-14T11:31:57;100532.19;;;7.86;79.98
63088;BME280;49173;43.164;27.786;2024-02-14T11:34:24;100530.22;;;7.91;79.83
63088;BME280;49173;43.164;27.786;2024-02-14T11:36:49;100537.22;;;7.94;79.11
63088;BME280;49173;43.164;27.786;2024-02-14T11:39:18;100533.69;;;7.93;78.89
63088;BME280;49173;43.164;27.786;2024-02-14T11:41:43;100534.22;;;8.02;78.82
63088;BME280;49173;43.164;27.786;2024-02-14T11:44:09;100535.97;;;8.03;78.77
63088;BME280;49173;43.164;27.786;2024-02-14T11:46:35;100533.44;;;7.99;77.68
63088;BME280;49173;43.164;27.786;2024-02-14T11:49:01;100530.75;;;7.99;78.15
63088;BME280;49173;43.164;27.786;2024-02-14T11:51:28;100532.50;;;8.01;76.24
63088;BME280;49173;43.164;27.786;2024-02-14T11:53:54;100533.28;;;8.03;77.20
63088;BME280;49173;43.164;27.786;2024-02-14T11:56:20;100532.25;;;8.07;76.62
63088;BME280;49173;43.164;27.786;2024-02-14T11:58:47;100536.78;;;8.05;76.33
63088;BME280;49173;43.164;27.786;2024-02-14T12:01:16;100540.31;;;8.05;76.88
63088;BME280;49173;43.164;27.786;2024-02-14T12:03:42;100530.44;;;8.07;75.99
63088;BME280;49173;43.164;27.786;2024-02-14T12:06:09;100524.47;;;8.01;76.18
63088;BME280;49173;43.164;27.786;2024-02-14T12:08:35;100522.59;;;8.03;75.92
63088;BME280;49173;43.164;27.786;2024-02-14T12:11:02;100527.22;;;7.99;76.71
63088;BME280;49173;43.164;27.786;2024-02-14T12:13:28;100527.06;;;8.02;76.67
63088;BME280;49173;43.164;27.786;2024-02-14T12:15:57;100534.03;;;8.06;76.88
63088;BME280;49173;43.164;27.786;2024-02-14T12:18:23;100530.28;;;8.10;76.18
63088;BME280;49173;43.164;27.786;2024-02-14T12:20:49;100531.97;;;8.13;76.41
63088;BME280;49173;43.164;27.786;2024-02-14T12:23:16;100531.78;;;8.17;77.88
63088;BME280;49173;43.164;27.786;2024-02-14T12:25:46;100530.66;;;8.23;76.33
63088;BME280;49173;43.164;27.786;2024-02-14T12:28:18;100523.81;;;8.16;74.71
63088;BME280;49173;43.164;27.786;2024-02-14T12:30:47;100528.44;;;8.12;75.25
63088;BME280;49173;43.164;27.786;2024-02-14T12:33:21;100527.44;;;8.15;75.80
63088;BME280;49173;43.164;27.786;2024-02-14T12:35:49;100531.50;;;8.23;75.83
63088;BME280;49173;43.164;27.786;2024-02-14T12:38:15;100530.97;;;8.15;75.30
63088;BME280;49173;43.164;27.786;2024-02-14T12:40:41;100528.56;;;8.09;74.74
63088;BME280;49173;43.164;27.786;2024-02-14T12:43:10;100541.38;;;8.01;74.19
63088;BME280;49173;43.164;27.786;2024-02-14T12:45:38;100537.09;;;7.97;74.30